sensor_id;sensor_type;location;lat;lon;timestamp;P1;durP1;ratioP1;P2;durP2;ratioP2
37873;SDS011;23709;48.078;11.684;2023-07-31T00:02:20;6.00;;;2.72;;
37873;SDS011;23709;48.078;11.684;2023-07-31T00:04:53;6.40;;;3.13;;
37873;SDS011;23709;48.078;11.684;2023-07-31T00:07:25;5.97;;;2.78;;
37873;SDS011;23709;48.078;11.684;2023-07-31T00:09:57;6.20;;;2.85;;
37873;SDS011;23709;48.078;11.684;2023-07-31T00:12:29;8.68;;;2.90;;
37873;SDS011;23709;48.078;11.684;2023-07-31T00:15:02;7.90;;;2.35;;
37873;SDS011;23709;48.078;11.684;2023-07-31T00:17:35;7.40;;;3.00;;
37873;SDS011;23709;48.078;11.684;2023-07-31T00:20:09;4.90;;;2.67;;
37873;SDS011;23709;48.078;11.684;2023-07-31T00:22:41;3.80;;;2.37;;
37873;SDS011;23709;48.078;11.684;2023-07-31T00:25:13;5.35;;;2.83;;
37873;SDS011;23709;48.078;11.684;2023-07-31T00:27:45;5.10;;;2.55;;
37873;SDS011;23709;48.078;11.684;2023-07-31T00:30:18;4.00;;;2.45;;
37873;SDS011;23709;48.078;11.684;2023-07-31T00:32:50;6.53;;;2.50;;
37873;SDS011;23709;48.078;11.684;2023-07-31T00:35:23;4.25;;;2.72;;
37873;SDS011;23709;48.078;11.684;2023-07-31T00:37:57;10.00;;;2.90;;
37873;SDS011;23709;48.078;11.684;2023-07-31T00:40:34;7.35;;;3.13;;
37873;SDS011;23709;48.078;11.684;2023-07-31T00:43:08;4.63;;;2.65;;
37873;SDS011;23709;48.078;11.684;2023-07-31T00:45:41;3.58;;;2.55;;
37873;SDS011;23709;48.078;11.684;2023-07-31T00:48:15;6.95;;;3.15;;
37873;SDS011;23709;48.078;11.684;2023-07-31T00:50:48;14.32;;;3.75;;
37873;SDS011;23709;48.078;11.684;2023-07-31T00:53:20;8.95;;;2.78;;
37873;SDS011;23709;48.078;11.684;2023-07-31T00:55:54;10.00;;;3.17;;
37873;SDS011;23709;48.078;11.684;2023-07-31T00:58:26;6.88;;;2.70;;
37873;SDS011;23709;48.078;11.684;2023-07-31T01:00:59;8.30;;;3.17;;
37873;SDS011;23709;48.078;11.684;2023-07-31T01:03:31;5.28;;;3.03;;
37873;SDS011;23709;48.078;11.684;2023-07-31T01:08:39;5.35;;;2.25;;
37873;SDS011;23709;48.078;11.684;2023-07-31T01:11:32;9.82;;;3.08;;
37873;SDS011;23709;48.078;11.684;2023-07-31T01:14:09;9.85;;;3.33;;
37873;SDS011;23709;48.078;11.684;2023-07-31T01:16:41;8.00;;;3.00;;
37873;SDS011;23709;48.078;11.684;2023-07-31T01:19:14;12.80;;;3.47;;
37873;SDS011;23709;48.078;11.684;2023-07-31T01:27:44;8.90;;;3.05;;
37873;SDS011;23709;48.078;11.684;2023-07-31T01:30:25;6.47;;;3.58;;
37873;SDS011;23709;48.078;11.684;2023-07-31T01:33:02;12.73;;;3.22;;
37873;SDS011;23709;48.078;11.684;2023-07-31T01:35:38;5.60;;;2.70;;
37873;SDS011;23709;48.078;11.684;2023-07-31T01:38:10;9.40;;;2.90;;
37873;SDS011;23709;48.078;11.684;2023-07-31T01:40:43;7.28;;;3.00;;
37873;SDS011;23709;48.078;11.684;2023-07-31T01:43:15;10.35;;;2.80;;
37873;SDS011;23709;48.078;11.684;2023-07-31T01:45:48;5.80;;;3.00;;
37873;SDS011;23709;48.078;11.684;2023-07-31T01:48:22;7.32;;;3.50;;
37873;SDS011;23709;48.078;11.684;2023-07-31T01:50:54;5.40;;;2.93;;
37873;SDS011;23709;48.078;11.684;2023-07-31T01:53:28;8.33;;;2.80;;
37873;SDS011;23709;48.078;11.684;2023-07-31T01:58:35;8.88;;;2.92;;
37873;SDS011;23709;48.078;11.684;2023-07-31T02:01:07;6.55;;;2.75;;
37873;SDS011;23709;48.078;11.684;2023-07-31T02:03:39;7.13;;;2.75;;
37873;SDS011;23709;48.078;11.684;2023-07-31T02:06:13;4.18;;;3.00;;
37873;SDS011;23709;48.078;11.684;2023-07-31T02:08:45;6.63;;;3.63;;
37873;SDS011;23709;48.078;11.684;2023-07-31T02:11:17;9.00;;;3.45;;
37873;SDS011;23709;48.078;11.684;2023-07-31T02:13:50;6.20;;;3.13;;
37873;SDS011;23709;48.078;11.684;2023-07-31T02:16:22;5.65;;;2.35;;
37873;SDS011;23709;48.078;11.684;2023-07-31T02:18:54;5.65;;;2.97;;
37873;SDS011;23709;48.078;11.684;2023-07-31T02:21:26;6.32;;;2.83;;
37873;SDS011;23709;48.078;11.684;2023-07-31T02:23:59;6.32;;;3.30;;
37873;SDS011;23709;48.078;11.684;2023-07-31T02:26:31;4.65;;;2.95;;
37873;SDS011;23709;48.078;11.684;2023-07-31T02:29:03;3.80;;;2.83;;
37873;SDS011;23709;48.078;11.684;2023-07-31T02:31:35;7.95;;;2.97;;
37873;SDS011;23709;48.078;11.684;2023-07-31T02:34:09;7.00;;;3.38;;
37873;SDS011;23709;48.078;11.684;2023-07-31T02:36:41;8.63;;;3.53;;
37873;SDS011;23709;48.078;11.684;2023-07-31T02:39:13;7.40;;;2.95;;
37873;SDS011;23709;48.078;11.684;2023-07-31T02:41:46;5.85;;;2.65;;
37873;SDS011;23709;48.078;11.684;2023-07-31T02:44:18;8.13;;;3.28;;
37873;SDS011;23709;48.078;11.684;2023-07-31T02:46:52;4.82;;;2.78;;
37873;SDS011;23709;48.078;11.684;2023-07-31T02:49:25;5.93;;;3.22;;
37873;SDS011;23709;48.078;11.684;2023-07-31T02:51:57;6.82;;;3.40;;
37873;SDS011;23709;48.078;11.684;2023-07-31T02:54:29;4.30;;;2.83;;
37873;SDS011;23709;48.078;11.684;2023-07-31T02:57:02;10.63;;;3.10;;
37873;SDS011;23709;48.078;11.684;2023-07-31T02:59:35;7.18;;;2.80;;
37873;SDS011;23709;48.078;11.684;2023-07-31T03:02:07;8.40;;;3.22;;
37873;SDS011;23709;48.078;11.684;2023-07-31T03:04:40;5.73;;;3.30;;
37873;SDS011;23709;48.078;11.684;2023-07-31T03:07:12;7.95;;;3.53;;
37873;SDS011;23709;48.078;11.684;2023-07-31T03:09:45;6.43;;;2.85;;
37873;SDS011;23709;48.078;11.684;2023-07-31T03:12:17;6.18;;;3.33;;
37873;SDS011;23709;48.078;11.684;2023-07-31T03:14:52;7.60;;;3.40;;
37873;SDS011;23709;48.078;11.684;2023-07-31T03:17:24;14.82;;;3.72;;
37873;SDS011;23709;48.078;11.684;2023-07-31T03:19:56;7.28;;;3.55;;
37873;SDS011;23709;48.078;11.684;2023-07-31T03:22:29;6.43;;;3.25;;
37873;SDS011;23709;48.078;11.684;2023-07-31T03:25:02;8.25;;;3.47;;
37873;SDS011;23709;48.078;11.684;2023-07-31T03:27:34;6.10;;;3.30;;
37873;SDS011;23709;48.078;11.684;2023-07-31T03:30:07;7.53;;;3.33;;
37873;SDS011;23709;48.078;11.684;2023-07-31T03:35:12;8.38;;;3.65;;
37873;SDS011;23709;48.078;11.684;2023-07-31T03:37:46;11.60;;;3.35;;
37873;SDS011;23709;48.078;11.684;2023-07-31T03:40:18;12.43;;;3.53;;
37873;SDS011;23709;48.078;11.684;2023-07-31T03:42:51;6.40;;;3.33;;
37873;SDS011;23709;48.078;11.684;2023-07-31T03:45:23;11.32;;;4.00;;
37873;SDS011;23709;48.078;11.684;2023-07-31T03:47:55;9.30;;;3.70;;
37873;SDS011;23709;48.078;11.684;2023-07-31T03:50:29;11.52;;;3.67;;
37873;SDS011;23709;48.078;11.684;2023-07-31T03:53:02;8.67;;;3.60;;
37873;SDS011;23709;48.078;11.684;2023-07-31T03:55:34;14.07;;;3.70;;
37873;SDS011;23709;48.078;11.684;2023-07-31T03:58:06;10.48;;;3.72;;
37873;SDS011;23709;48.078;11.684;2023-07-31T04:00:39;4.57;;;3.17;;
37873;SDS011;23709;48.078;11.684;2023-07-31T04:03:12;9.70;;;4.32;;
37873;SDS011;23709;48.078;11.684;2023-07-31T04:05:44;13.27;;;3.58;;
37873;SDS011;23709;48.078;11.684;2023-07-31T04:08:16;8.48;;;3.70;;
37873;SDS011;23709;48.078;11.684;2023-07-31T04:10:49;8.10;;;4.18;;
37873;SDS011;23709;48.078;11.684;2023-07-31T04:13:21;8.00;;;3.65;;
37873;SDS011;23709;48.078;11.684;2023-07-31T04:15:55;7.60;;;3.78;;
37873;SDS011;23709;48.078;11.684;2023-07-31T04:18:27;9.80;;;4.18;;
37873;SDS011;23709;48.078;11.684;2023-07-31T04:20:59;8.80;;;3.95;;
37873;SDS011;23709;48.078;11.684;2023-07-31T04:23:33;8.32;;;3.20;;
37873;SDS011;23709;48.078;11.684;2023-07-31T04:26:05;8.57;;;3.45;;
37873;SDS011;23709;48.078;11.684;2023-07-31T04:28:38;8.55;;;3.92;;
37873;SDS011;23709;48.078;11.684;2023-07-31T04:31:10;11.73;;;3.80;;
37873;SDS011;23709;48.078;11.684;2023-07-31T04:33:42;9.55;;;4.20;;
37873;SDS011;23709;48.078;11.684;2023-07-31T04:36:15;8.73;;;3.70;;
37873;SDS011;23709;48.078;11.684;2023-07-31T04:38:47;13.60;;;4.00;;
37873;SDS011;23709;48.078;11.684;2023-07-31T04:41:19;6.88;;;4.10;;
37873;SDS011;23709;48.078;11.684;2023-07-31T04:43:52;9.23;;;3.92;;
37873;SDS011;23709;48.078;11.684;2023-07-31T04:46:24;7.38;;;4.38;;
37873;SDS011;23709;48.078;11.684;2023-07-31T04:48:56;7.97;;;3.70;;
37873;SDS011;23709;48.078;11.684;2023-07-31T04:51:29;8.70;;;3.83;;
37873;SDS011;23709;48.078;11.684;2023-07-31T04:54:01;7.25;;;3.63;;
37873;SDS011;23709;48.078;11.684;2023-07-31T04:56:33;6.72;;;3.35;;
37873;SDS011;23709;48.078;11.684;2023-07-31T04:59:05;12.50;;;3.92;;
37873;SDS011;23709;48.078;11.684;2023-07-31T05:01:38;6.05;;;3.83;;
37873;SDS011;23709;48.078;11.684;2023-07-31T05:04:13;6.78;;;3.33;;
37873;SDS011;23709;48.078;11.684;2023-07-31T05:06:46;9.57;;;3.83;;
37873;SDS011;23709;48.078;11.684;2023-07-31T05:09:18;6.35;;;3.63;;
37873;SDS011;23709;48.078;11.684;2023-07-31T05:11:51;6.75;;;4.07;;
37873;SDS011;23709;48.078;11.684;2023-07-31T05:14:25;9.95;;;3.88;;
37873;SDS011;23709;48.078;11.684;2023-07-31T05:16:58;7.13;;;3.38;;
37873;SDS011;23709;48.078;11.684;2023-07-31T05:19:30;6.05;;;3.53;;
37873;SDS011;23709;48.078;11.684;2023-07-31T05:22:02;6.07;;;3.40;;
37873;SDS011;23709;48.078;11.684;2023-07-31T05:24:35;9.77;;;3.60;;
37873;SDS011;23709;48.078;11.684;2023-07-31T05:27:07;9.68;;;3.97;;
37873;SDS011;23709;48.078;11.684;2023-07-31T05:29:40;8.50;;;4.03;;
37873;SDS011;23709;48.078;11.684;2023-07-31T05:32:12;5.72;;;3.33;;
37873;SDS011;23709;48.078;11.684;2023-07-31T05:34:44;6.93;;;3.72;;
37873;SDS011;23709;48.078;11.684;2023-07-31T05:37:17;5.07;;;3.25;;
37873;SDS011;23709;48.078;11.684;2023-07-31T05:39:49;10.80;;;3.58;;
37873;SDS011;23709;48.078;11.684;2023-07-31T05:42:23;6.78;;;3.80;;
37873;SDS011;23709;48.078;11.684;2023-07-31T05:44:55;11.77;;;3.67;;
37873;SDS011;23709;48.078;11.684;2023-07-31T05:47:27;6.15;;;3.40;;
37873;SDS011;23709;48.078;11.684;2023-07-31T05:49:59;11.27;;;3.78;;
37873;SDS011;23709;48.078;11.684;2023-07-31T05:52:32;6.53;;;3.50;;
37873;SDS011;23709;48.078;11.684;2023-07-31T05:55:04;7.47;;;3.00;;
37873;SDS011;23709;48.078;11.684;2023-07-31T05:57:36;7.00;;;3.50;;
37873;SDS011;23709;48.078;11.684;2023-07-31T06:00:09;10.68;;;3.33;;
37873;SDS011;23709;48.078;11.684;2023-07-31T06:02:41;5.97;;;3.28;;
37873;SDS011;23709;48.078;11.684;2023-07-31T06:05:14;7.75;;;3.55;;
37873;SDS011;23709;48.078;11.684;2023-07-31T06:07:46;6.75;;;3.40;;
37873;SDS011;23709;48.078;11.684;2023-07-31T06:10:19;4.40;;;3.13;;
37873;SDS011;23709;48.078;11.684;2023-07-31T06:12:51;7.50;;;3.53;;
37873;SDS011;23709;48.078;11.684;2023-07-31T06:15:24;6.13;;;2.80;;
37873;SDS011;23709;48.078;11.684;2023-07-31T06:17:56;5.38;;;2.75;;
37873;SDS011;23709;48.078;11.684;2023-07-31T06:20:29;8.17;;;3.00;;
37873;SDS011;23709;48.078;11.684;2023-07-31T06:23:01;9.23;;;3.00;;
37873;SDS011;23709;48.078;11.684;2023-07-31T06:25:35;9.80;;;2.90;;
37873;SDS011;23709;48.078;11.684;2023-07-31T06:28:07;9.05;;;3.05;;
37873;SDS011;23709;48.078;11.684;2023-07-31T06:30:39;5.95;;;2.35;;
37873;SDS011;23709;48.078;11.684;2023-07-31T06:33:12;8.40;;;2.85;;
37873;SDS011;23709;48.078;11.684;2023-07-31T06:35:44;5.63;;;2.92;;
37873;SDS011;23709;48.078;11.684;2023-07-31T06:38:21;5.33;;;3.00;;
37873;SDS011;23709;48.078;11.684;2023-07-31T06:40:55;6.88;;;3.42;;
37873;SDS011;23709;48.078;11.684;2023-07-31T06:43:28;6.05;;;3.17;;
37873;SDS011;23709;48.078;11.684;2023-07-31T06:46:06;7.35;;;3.58;;
37873;SDS011;23709;48.078;11.684;2023-07-31T06:48:39;8.18;;;2.92;;
37873;SDS011;23709;48.078;11.684;2023-07-31T06:51:11;7.13;;;3.10;;
37873;SDS011;23709;48.078;11.684;2023-07-31T06:53:43;6.82;;;2.75;;
37873;SDS011;23709;48.078;11.684;2023-07-31T06:56:16;6.30;;;3.00;;
37873;SDS011;23709;48.078;11.684;2023-07-31T06:58:49;6.40;;;3.17;;
37873;SDS011;23709;48.078;11.684;2023-07-31T07:01:21;6.00;;;3.00;;
37873;SDS011;23709;48.078;11.684;2023-07-31T07:03:53;5.30;;;2.85;;
37873;SDS011;23709;48.078;11.684;2023-07-31T07:06:26;6.05;;;2.72;;
37873;SDS011;23709;48.078;11.684;2023-07-31T07:08:59;6.07;;;2.72;;
37873;SDS011;23709;48.078;11.684;2023-07-31T07:11:31;7.45;;;3.05;;
37873;SDS011;23709;48.078;11.684;2023-07-31T07:14:03;7.47;;;2.95;;
37873;SDS011;23709;48.078;11.684;2023-07-31T07:16:36;7.53;;;3.10;;
37873;SDS011;23709;48.078;11.684;2023-07-31T07:19:09;5.25;;;2.85;;
37873;SDS011;23709;48.078;11.684;2023-07-31T07:21:41;5.43;;;2.53;;
37873;SDS011;23709;48.078;11.684;2023-07-31T07:24:14;3.97;;;2.75;;
37873;SDS011;23709;48.078;11.684;2023-07-31T07:26:46;3.63;;;2.30;;
37873;SDS011;23709;48.078;11.684;2023-07-31T07:29:19;4.13;;;2.88;;
37873;SDS011;23709;48.078;11.684;2023-07-31T07:31:51;6.70;;;2.47;;
37873;SDS011;23709;48.078;11.684;2023-07-31T07:34:25;8.55;;;2.55;;
37873;SDS011;23709;48.078;11.684;2023-07-31T07:36:58;7.63;;;2.70;;
37873;SDS011;23709;48.078;11.684;2023-07-31T07:39:30;4.65;;;2.80;;
37873;SDS011;23709;48.078;11.684;2023-07-31T07:42:02;6.07;;;2.53;;
37873;SDS011;23709;48.078;11.684;2023-07-31T07:44:35;8.07;;;2.70;;
37873;SDS011;23709;48.078;11.684;2023-07-31T07:47:07;8.38;;;2.78;;
37873;SDS011;23709;48.078;11.684;2023-07-31T07:49:39;6.75;;;2.78;;
37873;SDS011;23709;48.078;11.684;2023-07-31T07:52:12;5.10;;;2.38;;
37873;SDS011;23709;48.078;11.684;2023-07-31T07:54:44;4.43;;;2.57;;
37873;SDS011;23709;48.078;11.684;2023-07-31T07:57:17;7.25;;;2.78;;
37873;SDS011;23709;48.078;11.684;2023-07-31T07:59:50;4.07;;;2.28;;
37873;SDS011;23709;48.078;11.684;2023-07-31T08:02:22;8.55;;;2.63;;
37873;SDS011;23709;48.078;11.684;2023-07-31T08:04:54;4.93;;;2.33;;
37873;SDS011;23709;48.078;11.684;2023-07-31T08:07:27;5.47;;;2.80;;
37873;SDS011;23709;48.078;11.684;2023-07-31T08:09:59;11.02;;;2.33;;
37873;SDS011;23709;48.078;11.684;2023-07-31T08:12:31;3.85;;;2.25;;
37873;SDS011;23709;48.078;11.684;2023-07-31T08:15:04;3.60;;;2.25;;
37873;SDS011;23709;48.078;11.684;2023-07-31T08:20:10;6.30;;;2.90;;
37873;SDS011;23709;48.078;11.684;2023-07-31T08:22:43;5.32;;;2.47;;
37873;SDS011;23709;48.078;11.684;2023-07-31T08:25:15;6.80;;;2.83;;
37873;SDS011;23709;48.078;11.684;2023-07-31T08:27:47;5.78;;;2.00;;
37873;SDS011;23709;48.078;11.684;2023-07-31T08:30:20;6.97;;;2.55;;
37873;SDS011;23709;48.078;11.684;2023-07-31T08:32:52;6.57;;;2.50;;
37873;SDS011;23709;48.078;11.684;2023-07-31T08:35:25;6.80;;;2.40;;
37873;SDS011;23709;48.078;11.684;2023-07-31T08:37:59;5.43;;;2.50;;
37873;SDS011;23709;48.078;11.684;2023-07-31T08:40:32;6.07;;;2.90;;
37873;SDS011;23709;48.078;11.684;2023-07-31T08:43:12;5.38;;;2.40;;
37873;SDS011;23709;48.078;11.684;2023-07-31T08:45:44;3.67;;;2.50;;
37873;SDS011;23709;48.078;11.684;2023-07-31T08:48:17;6.35;;;2.75;;
37873;SDS011;23709;48.078;11.684;2023-07-31T08:50:51;6.18;;;2.33;;
37873;SDS011;23709;48.078;11.684;2023-07-31T08:53:25;5.40;;;2.33;;
37873;SDS011;23709;48.078;11.684;2023-07-31T08:55:57;7.68;;;2.35;;
37873;SDS011;23709;48.078;11.684;2023-07-31T08:58:31;6.63;;;2.40;;
37873;SDS011;23709;48.078;11.684;2023-07-31T09:03:39;5.25;;;2.97;;
37873;SDS011;23709;48.078;11.684;2023-07-31T09:06:13;7.10;;;2.33;;
37873;SDS011;23709;48.078;11.684;2023-07-31T09:08:50;8.20;;;2.67;;
37873;SDS011;23709;48.078;11.684;2023-07-31T09:11:23;8.05;;;2.60;;
37873;SDS011;23709;48.078;11.684;2023-07-31T09:13:58;4.40;;;2.25;;
37873;SDS011;23709;48.078;11.684;2023-07-31T09:16:33;5.47;;;2.50;;
37873;SDS011;23709;48.078;11.684;2023-07-31T09:19:12;6.05;;;2.38;;
37873;SDS011;23709;48.078;11.684;2023-07-31T09:21:47;3.13;;;2.17;;
37873;SDS011;23709;48.078;11.684;2023-07-31T09:24:29;6.25;;;2.40;;
37873;SDS011;23709;48.078;11.684;2023-07-31T09:27:03;3.25;;;2.45;;
37873;SDS011;23709;48.078;11.684;2023-07-31T09:29:39;5.95;;;2.63;;
37873;SDS011;23709;48.078;11.684;2023-07-31T09:32:17;7.13;;;2.50;;
37873;SDS011;23709;48.078;11.684;2023-07-31T09:34:52;6.47;;;2.95;;
37873;SDS011;23709;48.078;11.684;2023-07-31T09:37:25;4.97;;;2.73;;
37873;SDS011;23709;48.078;11.684;2023-07-31T09:39:57;6.32;;;2.20;;
37873;SDS011;23709;48.078;11.684;2023-07-31T09:42:30;3.03;;;2.30;;
37873;SDS011;23709;48.078;11.684;2023-07-31T09:45:07;6.60;;;2.53;;
37873;SDS011;23709;48.078;11.684;2023-07-31T09:47:45;7.82;;;3.00;;
37873;SDS011;23709;48.078;11.684;2023-07-31T09:50:22;9.85;;;2.70;;
37873;SDS011;23709;48.078;11.684;2023-07-31T09:52:55;6.25;;;2.72;;
37873;SDS011;23709;48.078;11.684;2023-07-31T09:55:28;9.43;;;2.63;;
37873;SDS011;23709;48.078;11.684;2023-07-31T09:58:05;7.97;;;2.60;;
37873;SDS011;23709;48.078;11.684;2023-07-31T10:00:42;6.85;;;2.63;;
37873;SDS011;23709;48.078;11.684;2023-07-31T10:03:15;5.18;;;2.70;;
37873;SDS011;23709;48.078;11.684;2023-07-31T10:05:49;8.00;;;2.70;;
37873;SDS011;23709;48.078;11.684;2023-07-31T10:08:23;4.90;;;2.33;;
37873;SDS011;23709;48.078;11.684;2023-07-31T10:11:01;6.05;;;2.65;;
37873;SDS011;23709;48.078;11.684;2023-07-31T10:13:35;5.82;;;2.50;;
37873;SDS011;23709;48.078;11.684;2023-07-31T10:16:09;4.70;;;2.35;;
37873;SDS011;23709;48.078;11.684;2023-07-31T10:18:42;7.15;;;2.28;;
37873;SDS011;23709;48.078;11.684;2023-07-31T10:21:15;3.42;;;2.35;;
37873;SDS011;23709;48.078;11.684;2023-07-31T10:23:48;4.93;;;2.50;;
37873;SDS011;23709;48.078;11.684;2023-07-31T10:26:22;7.18;;;2.47;;
37873;SDS011;23709;48.078;11.684;2023-07-31T10:28:57;5.30;;;2.70;;
37873;SDS011;23709;48.078;11.684;2023-07-31T10:31:30;5.25;;;2.17;;
37873;SDS011;23709;48.078;11.684;2023-07-31T10:34:03;7.43;;;2.70;;
37873;SDS011;23709;48.078;11.684;2023-07-31T10:36:36;5.07;;;2.67;;
37873;SDS011;23709;48.078;11.684;2023-07-31T10:42:12;6.00;;;2.42;;
37873;SDS011;23709;48.078;11.684;2023-07-31T10:44:46;4.18;;;2.22;;
37873;SDS011;23709;48.078;11.684;2023-07-31T10:47:23;4.47;;;2.15;;
37873;SDS011;23709;48.078;11.684;2023-07-31T10:52:56;5.35;;;2.40;;
37873;SDS011;23709;48.078;11.684;2023-07-31T10:55:33;4.07;;;2.22;;
37873;SDS011;23709;48.078;11.684;2023-07-31T10:58:12;4.73;;;2.43;;
37873;SDS011;23709;48.078;11.684;2023-07-31T11:00:45;4.05;;;2.63;;
37873;SDS011;23709;48.078;11.684;2023-07-31T11:03:19;4.93;;;2.50;;
37873;SDS011;23709;48.078;11.684;2023-07-31T11:08:30;3.42;;;1.98;;
37873;SDS011;23709;48.078;11.684;2023-07-31T11:11:14;3.25;;;2.50;;
37873;SDS011;23709;48.078;11.684;2023-07-31T11:13:51;7.45;;;2.40;;
37873;SDS011;23709;48.078;11.684;2023-07-31T11:16:25;5.18;;;2.45;;
37873;SDS011;23709;48.078;11.684;2023-07-31T11:18:57;8.10;;;2.30;;
37873;SDS011;23709;48.078;11.684;2023-07-31T11:21:30;3.83;;;2.40;;
37873;SDS011;23709;48.078;11.684;2023-07-31T11:24:03;5.80;;;2.42;;
37873;SDS011;23709;48.078;11.684;2023-07-31T11:29:12;6.82;;;2.70;;
37873;SDS011;23709;48.078;11.684;2023-07-31T11:31:45;3.97;;;2.17;;
37873;SDS011;23709;48.078;11.684;2023-07-31T11:34:18;6.57;;;2.50;;
37873;SDS011;23709;48.078;11.684;2023-07-31T11:36:53;7.78;;;2.45;;
37873;SDS011;23709;48.078;11.684;2023-07-31T11:39:27;4.13;;;2.40;;
37873;SDS011;23709;48.078;11.684;2023-07-31T11:42:00;3.92;;;2.60;;
37873;SDS011;23709;48.078;11.684;2023-07-31T11:44:40;5.47;;;3.00;;
37873;SDS011;23709;48.078;11.684;2023-07-31T11:47:15;6.28;;;2.75;;
37873;SDS011;23709;48.078;11.684;2023-07-31T11:49:48;5.47;;;2.47;;
37873;SDS011;23709;48.078;11.684;2023-07-31T11:52:21;3.70;;;2.20;;
37873;SDS011;23709;48.078;11.684;2023-07-31T11:54:55;3.55;;;2.30;;
37873;SDS011;23709;48.078;11.684;2023-07-31T11:57:28;6.47;;;2.35;;
37873;SDS011;23709;48.078;11.684;2023-07-31T12:00:01;6.80;;;2.60;;
37873;SDS011;23709;48.078;11.684;2023-07-31T12:02:35;4.38;;;2.70;;
37873;SDS011;23709;48.078;11.684;2023-07-31T12:05:12;6.68;;;2.42;;
37873;SDS011;23709;48.078;11.684;2023-07-31T12:13:04;3.75;;;2.50;;
37873;SDS011;23709;48.078;11.684;2023-07-31T12:15:39;5.00;;;2.65;;
37873;SDS011;23709;48.078;11.684;2023-07-31T12:18:18;6.00;;;2.78;;
37873;SDS011;23709;48.078;11.684;2023-07-31T12:20:59;3.25;;;2.08;;
37873;SDS011;23709;48.078;11.684;2023-07-31T12:23:33;8.05;;;2.35;;
37873;SDS011;23709;48.078;11.684;2023-07-31T12:26:08;3.60;;;2.38;;
37873;SDS011;23709;48.078;11.684;2023-07-31T12:28:42;4.70;;;2.45;;
37873;SDS011;23709;48.078;11.684;2023-07-31T12:31:16;5.75;;;2.53;;
37873;SDS011;23709;48.078;11.684;2023-07-31T12:33:51;3.60;;;2.40;;
37873;SDS011;23709;48.078;11.684;2023-07-31T12:36:23;6.28;;;2.75;;
37873;SDS011;23709;48.078;11.684;2023-07-31T12:38:56;4.50;;;2.53;;
37873;SDS011;23709;48.078;11.684;2023-07-31T12:41:30;5.20;;;2.58;;
37873;SDS011;23709;48.078;11.684;2023-07-31T12:44:02;5.57;;;2.20;;
37873;SDS011;23709;48.078;11.684;2023-07-31T12:46:35;3.55;;;2.15;;
37873;SDS011;23709;48.078;11.684;2023-07-31T12:51:41;4.18;;;2.33;;
37873;SDS011;23709;48.078;11.684;2023-07-31T12:54:13;4.87;;;2.67;;
37873;SDS011;23709;48.078;11.684;2023-07-31T12:56:45;6.40;;;2.40;;
37873;SDS011;23709;48.078;11.684;2023-07-31T12:59:18;3.00;;;2.30;;
37873;SDS011;23709;48.078;11.684;2023-07-31T13:01:50;5.00;;;2.47;;
37873;SDS011;23709;48.078;11.684;2023-07-31T13:04:22;3.55;;;2.63;;
37873;SDS011;23709;48.078;11.684;2023-07-31T13:06:55;8.50;;;2.53;;
37873;SDS011;23709;48.078;11.684;2023-07-31T13:09:28;3.92;;;2.22;;
37873;SDS011;23709;48.078;11.684;2023-07-31T13:12:00;4.10;;;2.20;;
37873;SDS011;23709;48.078;11.684;2023-07-31T13:14:32;3.72;;;2.67;;
37873;SDS011;23709;48.078;11.684;2023-07-31T13:17:05;5.40;;;2.22;;
37873;SDS011;23709;48.078;11.684;2023-07-31T13:19:38;3.50;;;1.95;;
37873;SDS011;23709;48.078;11.684;2023-07-31T13:22:10;3.22;;;2.30;;
37873;SDS011;23709;48.078;11.684;2023-07-31T13:24:42;6.82;;;2.40;;
37873;SDS011;23709;48.078;11.684;2023-07-31T13:27:15;4.35;;;2.30;;
37873;SDS011;23709;48.078;11.684;2023-07-31T13:29:52;4.07;;;2.22;;
37873;SDS011;23709;48.078;11.684;2023-07-31T13:32:24;8.75;;;2.60;;
37873;SDS011;23709;48.078;11.684;2023-07-31T13:37:30;3.45;;;2.00;;
37873;SDS011;23709;48.078;11.684;2023-07-31T13:40:03;3.93;;;1.80;;
37873;SDS011;23709;48.078;11.684;2023-07-31T13:42:39;5.18;;;2.20;;
37873;SDS011;23709;48.078;11.684;2023-07-31T13:45:12;5.60;;;2.30;;
37873;SDS011;23709;48.078;11.684;2023-07-31T13:47:44;2.43;;;1.80;;
37873;SDS011;23709;48.078;11.684;2023-07-31T13:50:16;4.33;;;2.10;;
37873;SDS011;23709;48.078;11.684;2023-07-31T13:52:52;2.83;;;1.90;;
37873;SDS011;23709;48.078;11.684;2023-07-31T13:55:24;3.97;;;2.13;;
37873;SDS011;23709;48.078;11.684;2023-07-31T13:57:57;4.95;;;1.80;;
37873;SDS011;23709;48.078;11.684;2023-07-31T14:00:29;4.13;;;2.28;;
37873;SDS011;23709;48.078;11.684;2023-07-31T14:03:02;11.07;;;4.07;;
37873;SDS011;23709;48.078;11.684;2023-07-31T14:05:35;7.20;;;3.60;;
37873;SDS011;23709;48.078;11.684;2023-07-31T14:08:07;4.60;;;2.50;;
37873;SDS011;23709;48.078;11.684;2023-07-31T14:10:40;3.63;;;2.38;;
37873;SDS011;23709;48.078;11.684;2023-07-31T14:13:12;2.90;;;2.00;;
37873;SDS011;23709;48.078;11.684;2023-07-31T14:15:44;3.00;;;1.97;;
37873;SDS011;23709;48.078;11.684;2023-07-31T14:18:17;4.35;;;1.77;;
37873;SDS011;23709;48.078;11.684;2023-07-31T14:20:50;2.63;;;2.00;;
37873;SDS011;23709;48.078;11.684;2023-07-31T14:23:23;3.92;;;2.33;;
37873;SDS011;23709;48.078;11.684;2023-07-31T14:25:56;7.43;;;2.88;;
37873;SDS011;23709;48.078;11.684;2023-07-31T14:28:29;4.38;;;2.33;;
37873;SDS011;23709;48.078;11.684;2023-07-31T14:31:01;2.70;;;1.77;;
37873;SDS011;23709;48.078;11.684;2023-07-31T14:33:34;3.13;;;1.95;;
37873;SDS011;23709;48.078;11.684;2023-07-31T14:36:07;9.98;;;3.83;;
37873;SDS011;23709;48.078;11.684;2023-07-31T14:38:39;3.53;;;2.30;;
37873;SDS011;23709;48.078;11.684;2023-07-31T14:41:12;5.30;;;2.00;;
37873;SDS011;23709;48.078;11.684;2023-07-31T14:43:44;12.88;;;3.75;;
37873;SDS011;23709;48.078;11.684;2023-07-31T14:46:16;7.72;;;2.17;;
37873;SDS011;23709;48.078;11.684;2023-07-31T14:48:49;6.07;;;3.20;;
37873;SDS011;23709;48.078;11.684;2023-07-31T14:51:21;4.45;;;2.20;;
37873;SDS011;23709;48.078;11.684;2023-07-31T14:53:55;2.55;;;1.73;;
37873;SDS011;23709;48.078;11.684;2023-07-31T14:56:27;2.35;;;1.65;;
37873;SDS011;23709;48.078;11.684;2023-07-31T14:59:00;7.43;;;2.38;;
37873;SDS011;23709;48.078;11.684;2023-07-31T15:01:32;7.30;;;2.00;;
37873;SDS011;23709;48.078;11.684;2023-07-31T15:04:05;4.65;;;2.10;;
37873;SDS011;23709;48.078;11.684;2023-07-31T15:06:37;5.85;;;2.45;;
37873;SDS011;23709;48.078;11.684;2023-07-31T15:09:10;2.80;;;2.20;;
37873;SDS011;23709;48.078;11.684;2023-07-31T15:11:42;5.53;;;2.25;;
37873;SDS011;23709;48.078;11.684;2023-07-31T15:14:15;4.40;;;2.20;;
37873;SDS011;23709;48.078;11.684;2023-07-31T15:16:48;6.97;;;2.70;;
37873;SDS011;23709;48.078;11.684;2023-07-31T15:19:20;5.20;;;2.80;;
37873;SDS011;23709;48.078;11.684;2023-07-31T15:21:54;3.60;;;2.20;;
37873;SDS011;23709;48.078;11.684;2023-07-31T15:24:26;4.28;;;2.40;;
37873;SDS011;23709;48.078;11.684;2023-07-31T15:26:59;4.20;;;2.80;;
37873;SDS011;23709;48.078;11.684;2023-07-31T15:29:33;3.38;;;2.40;;
37873;SDS011;23709;48.078;11.684;2023-07-31T15:32:08;4.78;;;2.42;;
37873;SDS011;23709;48.078;11.684;2023-07-31T15:34:41;7.43;;;2.70;;
37873;SDS011;23709;48.078;11.684;2023-07-31T15:37:14;3.97;;;2.63;;
37873;SDS011;23709;48.078;11.684;2023-07-31T15:39:46;4.35;;;3.33;;
37873;SDS011;23709;48.078;11.684;2023-07-31T15:42:18;4.55;;;2.88;;
37873;SDS011;23709;48.078;11.684;2023-07-31T15:44:51;5.10;;;2.33;;
37873;SDS011;23709;48.078;11.684;2023-07-31T15:47:23;5.53;;;2.70;;
37873;SDS011;23709;48.078;11.684;2023-07-31T15:49:55;7.75;;;2.72;;